Time;durP1;ratioP1;P1;durP2;ratioP2;P2;SDS_P1;SDS_P2;PMS_P1;PMS_P2;Temp;Humidity;BMP_temperature;BMP_pressure;BME280_temperature;BME280_humidity;BME280_pressure;Samples;Min_cycle;Max_cycle;Signal;HPM_P1;HPM_P2
2023/01/21 00:00:43;;;;;;;29.73;14.40;;;;;;;-1.43;100.00;102472.44;5031964;28;20506;-66
2023/01/21 00:03:08;;;;;;;33.15;14.10;;;;;;;-1.48;100.00;102471.81;5031808;28;20882;-66
2023/01/21 00:05:34;;;;;;;31.42;16.45;;;;;;;-1.42;100.00;102486.34;5031714;28;20036;-66
2023/01/21 00:07:59;;;;;;;38.22;18.52;;;;;;;-1.52;100.00;102470.28;5031848;28;20029;-66
2023/01/21 00:10:25;;;;;;;34.45;17.75;;;;;;;-1.47;100.00;102493.59;5031707;28;20476;-66
2023/01/21 00:12:50;;;;;;;33.05;16.23;;;;;;;-1.49;100.00;102493.69;5031773;28;20068;-66
2023/01/21 00:15:16;;;;;;;34.35;17.90;;;;;;;-1.47;100.00;102497.03;5031666;28;20060;-66
2023/01/21 00:17:42;;;;;;;35.15;17.27;;;;;;;-1.47;100.00;102501.44;5031554;28;20036;-66
2023/01/21 00:20:09;;;;;;;31.52;15.50;;;;;;;-1.51;100.00;102500.75;5031610;28;20037;-66
2023/01/21 00:22:34;;;;;;;39.15;17.20;;;;;;;-1.53;100.00;102497.38;5031532;28;20040;-66
2023/01/21 00:25:00;;;;;;;37.35;18.77;;;;;;;-1.54;100.00;102506.16;5031321;28;20049;-66
2023/01/21 00:27:25;;;;;;;36.95;18.65;;;;;;;-1.55;100.00;102507.94;5031388;28;20046;-66
2023/01/21 00:29:50;;;;;;;36.28;20.85;;;;;;;-1.58;100.00;102500.22;5031450;28;20079;-66
2023/01/21 00:32:16;;;;;;;38.70;17.67;;;;;;;-1.53;100.00;102513.06;5031317;28;20140;-66
2023/01/21 00:34:41;;;;;;;37.25;18.35;;;;;;;-1.57;100.00;102511.53;5031384;28;20057;-66
2023/01/21 00:37:07;;;;;;;34.25;16.83;;;;;;;-1.57;100.00;102512.38;5031193;28;20026;-66
2023/01/21 00:39:32;;;;;;;36.15;19.13;;;;;;;-1.58;100.00;102515.91;5031324;28;20029;-66
2023/01/21 00:41:58;;;;;;;37.67;18.52;;;;;;;-1.59;100.00;102516.00;5031048;28;20044;-66
2023/01/21 00:44:23;;;;;;;38.40;20.00;;;;;;;-1.61;100.00;102516.06;5031158;28;20036;-66
2023/01/21 00:46:48;;;;;;;35.83;19.30;;;;;;;-1.74;100.00;102501.06;5030957;28;20469;-66
2023/01/21 00:49:14;;;;;;;38.72;18.58;;;;;;;-1.68;100.00;102519.91;5013052;28;20140;-66
2023/01/21 00:51:39;;;;;;;33.03;17.83;;;;;;;-1.70;100.00;102520.88;5030745;28;20049;-66
2023/01/21 00:54:04;;;;;;;39.42;19.20;;;;;;;-1.69;100.00;102530.44;5030921;28;20037;-67
2023/01/21 00:56:30;;;;;;;38.65;20.92;;;;;;;-1.70;100.00;102534.84;5031007;28;20025;-66
2023/01/21 00:58:55;;;;;;;37.40;19.38;;;;;;;-1.71;100.00;102534.91;5030865;28;20473;-66
2023/01/21 01:01:21;;;;;;;34.05;18.35;;;;;;;-1.69;100.00;102543.53;5030943;28;20445;-66
2023/01/21 01:03:48;;;;;;;40.30;20.35;;;;;;;-1.70;100.00;102545.31;5030560;28;20036;-66
2023/01/21 01:06:21;;;;;;;37.08;20.23;;;;;;;-1.70;100.00;102557.50;5030506;28;20037;-66
2023/01/21 01:08:48;;;;;;;42.42;19.88;;;;;;;-1.73;100.00;102557.66;5030652;28;20044;-66
2023/01/21 01:11:15;;;;;;;47.10;22.77;;;;;;;-1.75;100.00;102564.75;5030623;28;20067;-66
2023/01/21 01:13:40;;;;;;;44.97;22.70;;;;;;;-1.84;100.00;102553.78;5030582;28;20397;-66
2023/01/21 01:16:06;;;;;;;44.30;21.05;;;;;;;-1.76;100.00;102579.59;5030459;28;20025;-67
2023/01/21 01:18:34;;;;;;;38.30;21.65;;;;;;;-1.77;100.00;102581.34;5030455;28;20490;-66
2023/01/21 01:21:00;;;;;;;44.42;20.33;;;;;;;-1.73;100.00;102586.44;5030513;28;20048;-66
2023/01/21 01:23:26;;;;;;;41.83;23.35;;;;;;;-1.75;100.00;102590.91;5030398;28;20040;-66
2023/01/21 01:26:03;;;;;;;47.95;22.75;;;;;;;-1.71;100.00;102602.91;5029967;28;20050;-66
2023/01/21 01:28:30;;;;;;;49.85;25.40;;;;;;;-1.74;100.00;102601.28;5030282;28;20060;-66
2023/01/21 01:30:56;;;;;;;41.17;19.45;;;;;;;-1.79;100.00;102606.72;5030184;28;20025;-66
2023/01/21 01:33:22;;;;;;;43.00;22.48;;;;;;;-1.78;100.00;102612.84;5030137;28;20143;-66
2023/01/21 01:35:48;;;;;;;45.75;24.38;;;;;;;-1.75;100.00;102617.06;5030114;28;20128;-66
2023/01/21 01:38:15;;;;;;;53.10;25.83;;;;;;;-1.83;100.00;102615.66;5030188;28;20044;-66
2023/01/21 01:40:41;;;;;;;43.47;25.60;;;;;;;-1.81;100.00;102620.78;5030188;28;20022;-66
2023/01/21 01:43:19;;;;;;;53.17;23.15;;;;;;;-1.75;100.00;102627.53;5030063;28;20044;-66
2023/01/21 01:45:46;;;;;;;48.70;28.58;;;;;;;-1.84;100.00;102629.63;5030066;28;20113;-67
2023/01/21 01:48:16;;;;;;;47.25;26.05;;;;;;;-1.86;100.00;102639.34;5029979;28;20031;-66
2023/01/21 01:50:42;;;;;;;48.42;24.70;;;;;;;-1.87;100.00;102631.56;5029970;28;20080;-66
2023/01/21 01:53:11;;;;;;;49.90;28.10;;;;;;;-1.88;100.00;102643.78;5029947;28;20052;-66
2023/01/21 01:55:37;;;;;;;50.83;29.13;;;;;;;-1.88;100.00;102643.78;5029911;28;20029;-66
2023/01/21 01:58:07;;;;;;;46.67;26.77;;;;;;;-1.99;100.00;102633.00;5029786;28;20022;-66
2023/01/21 02:00:33;;;;;;;48.70;28.55;;;;;;;-1.90;100.00;102647.41;5029909;28;20022;-66
2023/01/21 02:05:43;;;;;;;51.95;24.38;;;;;;;-1.95;100.00;102652.81;5029986;28;20099;-66
2023/01/21 02:08:09;;;;;;;56.00;26.77;;;;;;;-1.99;100.00;102649.53;5029601;28;20037;-66
2023/01/21 02:10:35;;;;;;;46.10;26.88;;;;;;;-2.01;100.00;102648.72;5029659;28;20026;-66
2023/01/21 02:13:01;;;;;;;49.95;28.30;;;;;;;-2.11;100.00;102644.84;5029693;28;20017;-66
2023/01/21 02:15:40;;;;;;;48.25;26.27;;;;;;;-2.09;100.00;102648.25;5029718;28;20044;-67
2023/01/21 02:18:05;;;;;;;45.30;25.33;;;;;;;-2.06;100.00;102668.16;5029617;28;20116;-67
2023/01/21 02:20:52;;;;;;;53.97;30.13;;;;;;;-2.09;100.00;102665.69;5029552;28;20170;-67
2023/01/21 02:23:38;;;;;;;52.65;27.30;;;;;;;-2.11;100.00;102670.13;5029573;28;20032;-66
2023/01/21 02:26:27;;;;;;;56.53;31.33;;;;;;;-2.13;100.00;102680.66;5029272;28;20056;-66
2023/01/21 02:28:59;;;;;;;53.90;25.05;;;;;;;-2.15;100.00;102677.25;5029526;28;20022;-66
2023/01/21 02:31:51;;;;;;;53.88;27.17;;;;;;;-2.14;100.00;102686.81;5029560;28;20033;-67
2023/01/21 02:34:30;;;;;;;50.78;28.25;;;;;;;-2.15;100.00;102689.47;5029292;28;20496;-66
2023/01/21 02:37:02;;;;;;;47.03;23.95;;;;;;;-2.17;100.00;102694.78;5029425;28;20353;-66
2023/01/21 02:39:57;;;;;;;50.10;25.15;;;;;;;-2.19;100.00;102693.16;5029397;28;20436;-66
2023/01/21 02:42:37;;;;;;;46.88;23.42;;;;;;;-2.21;100.00;102696.66;5029365;28;20049;-66
2023/01/21 02:45:22;;;;;;;48.08;27.55;;;;;;;-2.21;100.00;102699.28;5029313;28;20075;-66
2023/01/21 02:48:18;;;;;;;49.45;23.35;;;;;;;-2.21;100.00;102703.66;5029386;28;20068;-66
2023/01/21 02:50:47;;;;;;;50.97;26.75;;;;;;;-2.23;100.00;102708.09;5029310;28;20049;-66
2023/01/21 02:53:25;;;;;;;48.67;26.88;;;;;;;-2.22;100.00;102707.22;5029279;28;20473;-66
2023/01/21 02:55:51;;;;;;;40.97;22.88;;;;;;;-2.24;100.00;102712.50;5029236;28;20188;-66
2023/01/21 02:58:20;;;;;;;36.60;19.13;;;;;;;-2.23;100.00;102718.56;5029250;28;20143;-66
2023/01/21 03:00:59;;;;;;;47.10;24.88;;;;;;;-2.26;100.00;102714.31;5029231;28;20064;-66
2023/01/21 03:03:44;;;;;;;48.00;27.05;;;;;;;-2.30;100.00;102719.78;5029272;28;20539;-66
2023/01/21 03:06:18;;;;;;;45.40;24.38;;;;;;;-2.33;100.00;102720.75;5029171;28;20021;-67
2023/01/21 03:08:52;;;;;;;45.70;23.48;;;;;;;-2.34;100.00;102721.66;5029085;28;20558;-66
2023/01/21 03:11:20;;;;;;;46.72;25.40;;;;;;;-2.35;100.00;102719.97;5029180;28;20025;-63
2023/01/21 03:16:57;;;;;;;45.65;22.23;;;;;;;-2.35;100.00;102726.97;5033081;28;20138;-63
2023/01/21 03:19:54;;;;;;;49.88;24.13;;;;;;;-2.35;100.00;102738.25;5033026;28;20033;-62
2023/01/21 03:22:24;;;;;;;44.90;24.20;;;;;;;-2.38;100.00;102735.78;5031843;28;20045;-62
2023/01/21 03:24:51;;;;;;;48.58;20.60;;;;;;;-2.36;100.00;102741.75;5032302;28;20077;-63
2023/01/21 03:27:23;;;;;;;43.28;20.38;;;;;;;-2.35;100.00;102746.09;5032535;28;20480;-63
2023/01/21 03:29:50;;;;;;;;;;;;;;;-2.37;100.00;102742.69;5033015;28;20061;-63
2023/01/21 03:32:17;;;;;;;44.67;22.27;;;;;;;-2.41;100.00;102746.38;5032487;28;19909;-62
2023/01/21 03:34:49;;;;;;;38.92;20.58;;;;;;;-2.41;100.00;102741.13;5032527;28;20033;-63
2023/01/21 03:37:24;;;;;;;44.30;19.48;;;;;;;-2.39;100.00;102748.91;5032450;28;20025;-63
2023/01/21 03:40:18;;;;;;;44.63;24.25;;;;;;;-2.42;100.00;102747.25;5032409;28;20112;-63
2023/01/21 03:42:46;;;;;;;45.33;24.00;;;;;;;-2.47;100.00;102757.06;5031918;28;20049;-62
2023/01/21 03:45:12;;;;;;;43.20;22.75;;;;;;;-2.42;100.00;102758.56;5032381;28;20044;-62
2023/01/21 03:47:42;;;;;;;40.58;19.92;;;;;;;-2.46;100.00;102759.63;5032156;28;20091;-62
2023/01/21 03:50:18;;;;;;;37.22;18.63;;;;;;;-2.45;100.00;102760.47;5032163;28;20396;-62
2023/01/21 03:52:44;;;;;;;44.20;20.92;;;;;;;-2.47;100.00;102770.97;5032107;28;20034;-62
2023/01/21 03:55:11;;;;;;;42.05;22.38;;;;;;;-2.48;100.00;102761.44;5032068;28;20072;-62
2023/01/21 03:57:37;;;;;;;44.47;20.58;;;;;;;-2.49;100.00;102770.19;5032090;28;20055;-62
2023/01/21 04:00:04;;;;;;;39.42;20.85;;;;;;;-2.47;100.00;102767.50;5031869;28;20057;-62
2023/01/21 04:02:30;;;;;;;39.60;18.73;;;;;;;-2.44;100.00;102767.38;5031780;28;20080;-63
2023/01/21 04:04:55;;;;;;;40.78;19.77;;;;;;;-2.42;100.00;102779.44;5031838;28;20033;-63
2023/01/21 04:07:20;;;;;;;45.17;21.42;;;;;;;-2.45;100.00;102774.38;5031738;28;20075;-62
2023/01/21 04:09:46;;;;;;;36.55;20.25;;;;;;;-2.52;100.00;102765.06;5031863;28;20034;-63
2023/01/21 04:12:11;;;;;;;38.80;20.33;;;;;;;-2.49;100.00;102779.78;5031687;28;20034;-62
2023/01/21 04:14:37;;;;;;;42.67;21.15;;;;;;;-2.53;100.00;102780.84;5031764;28;20099;-62
2023/01/21 04:17:03;;;;;;;47.17;22.38;;;;;;;-2.57;100.00;102777.47;5031678;28;20068;-62
2023/01/21 04:19:28;;;;;;;43.00;20.67;;;;;;;-2.58;100.00;102782.78;5031537;28;20040;-62
2023/01/21 04:21:53;;;;;;;52.92;22.90;;;;;;;-2.62;100.00;102779.47;5031610;28;20040;-63
2023/01/21 04:24:19;;;;;;;41.42;22.27;;;;;;;-2.60;100.00;102784.59;5030588;28;20030;-63
2023/01/21 04:26:44;;;;;;;39.78;19.48;;;;;;;-2.61;100.00;102798.59;5031219;28;20544;-62
2023/01/21 04:29:09;;;;;;;41.88;20.65;;;;;;;-2.61;100.00;102794.22;5031496;28;20262;-62
2023/01/21 04:31:35;;;;;;;45.13;22.83;;;;;;;-2.59;100.00;102789.78;5031462;28;20484;-62
2023/01/21 04:34:00;;;;;;;44.20;19.88;;;;;;;-2.63;100.00;102793.41;5031384;28;20041;-63
2023/01/21 04:36:26;;;;;;;43.63;22.80;;;;;;;-2.61;100.00;102790.75;5031126;28;20028;-62
2023/01/21 04:38:51;;;;;;;41.03;21.83;;;;;;;-2.66;100.00;102797.00;5031290;28;20036;-62
2023/01/21 04:41:16;;;;;;;38.80;18.35;;;;;;;-2.67;100.00;102795.31;5031301;28;20049;-62
2023/01/21 04:43:42;;;;;;;40.22;20.13;;;;;;;-2.69;100.00;102796.28;5031191;28;20029;-62
2023/01/21 04:46:07;;;;;;;45.63;23.38;;;;;;;-2.73;100.00;102798.16;5031033;28;20604;-62
2023/01/21 04:48:32;;;;;;;46.80;24.25;;;;;;;-2.75;100.00;102789.56;5031072;28;20172;-62
2023/01/21 04:50:58;;;;;;;44.67;21.90;;;;;;;-2.77;100.00;102793.16;5031062;28;20044;-63
2023/01/21 04:53:23;;;;;;;42.92;19.85;;;;;;;-2.82;100.00;102790.72;5030925;28;20071;-62
2023/01/21 04:55:52;;;;;;;45.50;21.35;;;;;;;-2.79;100.00;102805.41;5030904;28;20120;-62
2023/01/21 04:58:18;;;;;;;37.63;20.50;;;;;;;-2.81;100.00;102805.44;5030924;28;20029;-63
2023/01/21 05:00:43;;;;;;;48.13;24.90;;;;;;;-2.79;100.00;102810.63;5030755;28;20501;-62
2023/01/21 05:03:08;;;;;;;41.25;20.27;;;;;;;-2.81;100.00;102807.22;5030820;28;20116;-62
2023/01/21 05:05:34;;;;;;;40.03;18.88;;;;;;;-2.80;100.00;102814.13;5030774;28;20463;-63
2023/01/21 05:07:59;;;;;;;50.85;20.20;;;;;;;-2.84;100.00;102817.78;5030798;28;20071;-62
2023/01/21 05:10:25;;;;;;;43.25;22.13;;;;;;;-2.86;100.00;102825.66;5030743;28;20017;-63
2023/01/21 05:12:50;;;;;;;45.88;20.95;;;;;;;-2.85;100.00;102827.38;5030791;28;20029;-62
2023/01/21 05:15:15;;;;;;;42.60;22.42;;;;;;;-2.83;100.00;102830.75;5030597;28;20416;-62
2023/01/21 05:17:41;;;;;;;40.15;20.65;;;;;;;-2.84;100.00;102826.47;5030513;28;20099;-63
2023/01/21 05:20:07;;;;;;;45.53;21.92;;;;;;;-2.84;100.00;102830.84;5030479;28;20034;-62
2023/01/21 05:22:32;;;;;;;39.75;20.40;;;;;;;-2.91;100.00;102830.22;5030447;28;20396;-62
2023/01/21 05:24:59;;;;;;;39.10;21.00;;;;;;;-2.90;100.00;102831.94;5030258;28;20057;-62
2023/01/21 05:27:25;;;;;;;43.22;22.67;;;;;;;-2.91;100.00;102836.31;5030361;28;20025;-62
2023/01/21 05:29:51;;;;;;;40.78;20.38;;;;;;;-2.93;100.00;102838.13;5030293;28;20021;-63
2023/01/21 05:32:17;;;;;;;42.33;21.08;;;;;;;-2.95;100.00;102846.94;5030214;28;20940;-62
2023/01/21 05:34:42;;;;;;;37.17;18.05;;;;;;;-2.96;100.00;102847.81;5030122;28;20045;-62
2023/01/21 05:37:09;;;;;;;43.72;21.50;;;;;;;-2.97;100.00;102844.38;5029969;28;20040;-62
2023/01/21 05:39:34;;;;;;;45.90;22.50;;;;;;;-2.98;100.00;102841.84;5030214;28;20025;-62
2023/01/21 05:41:59;;;;;;;43.75;23.15;;;;;;;-3.02;100.00;102846.31;5029883;28;20481;-66
2023/01/21 05:44:25;;;;;;;47.70;21.23;;;;;;;-3.01;100.00;102852.38;5029949;28;20040;-66
2023/01/21 05:46:50;;;;;;;41.83;21.45;;;;;;;-3.02;100.00;102850.69;5012113;28;20037;-66
2023/01/21 05:49:16;;;;;;;39.97;20.42;;;;;;;-3.05;100.00;102859.47;5029498;28;20065;-67
2023/01/21 05:51:41;;;;;;;40.60;20.52;;;;;;;-3.07;100.00;102858.69;5029576;28;20059;-67
2023/01/21 05:54:06;;;;;;;39.78;21.33;;;;;;;-3.06;100.00;102867.38;5029525;28;20484;-66
2023/01/21 05:56:32;;;;;;;45.15;21.77;;;;;;;-3.06;100.00;102862.16;5029432;28;20075;-66
2023/01/21 05:58:57;;;;;;;46.85;21.95;;;;;;;-3.05;100.00;102871.69;5011657;28;20037;-66
2023/01/21 06:01:23;;;;;;;46.10;21.40;;;;;;;-3.05;100.00;102874.28;5029459;28;20075;-66
2023/01/21 06:03:49;;;;;;;47.80;22.13;;;;;;;-3.05;100.00;102879.50;5029333;28;20025;-66
2023/01/21 06:06:14;;;;;;;41.53;19.95;;;;;;;-3.05;100.00;102874.28;5029126;28;20083;-66
2023/01/21 06:08:39;;;;;;;40.35;18.95;;;;;;;-3.10;100.00;102882.28;5029544;28;20033;-66
2023/01/21 06:11:05;;;;;;;45.55;21.90;;;;;;;-3.10;100.00;102879.69;5011509;28;20069;-66
2023/01/21 06:13:30;;;;;;;44.67;21.77;;;;;;;-3.12;100.00;102878.88;5029275;28;20041;-66
2023/01/21 06:15:56;;;;;;;46.65;20.13;;;;;;;-3.17;100.00;102878.19;5029083;28;20030;-66
2023/01/21 06:18:22;;;;;;;40.55;20.00;;;;;;;-3.17;100.00;102886.91;5028992;28;20045;-66
2023/01/21 06:20:48;;;;;;;47.08;22.73;;;;;;;-3.19;100.00;102882.66;5028936;28;20030;-66
2023/01/21 06:23:13;;;;;;;47.30;22.30;;;;;;;-3.20;100.00;102894.81;5029055;28;20540;-66
2023/01/21 06:25:39;;;;;;;43.00;22.98;;;;;;;-3.24;100.00;102895.00;5028774;28;20049;-66
2023/01/21 06:28:05;;;;;;;49.35;22.02;;;;;;;-3.22;100.00;102898.41;5029482;28;20531;-66
2023/01/21 06:30:30;;;;;;;43.00;19.60;;;;;;;-3.22;100.00;102903.63;5029501;28;20393;-66
2023/01/21 06:32:56;;;;;;;42.50;22.25;;;;;;;-3.23;100.00;102905.38;5029389;28;20356;-66
2023/01/21 06:35:21;;;;;;;43.70;21.90;;;;;;;-3.24;100.00;102905.44;5029512;28;20083;-66
2023/01/21 06:37:47;;;;;;;43.95;19.90;;;;;;;-3.26;100.00;102913.31;5029592;28;20021;-66
2023/01/21 06:40:13;;;;;;;43.55;20.67;;;;;;;-3.26;100.00;102915.09;5029305;28;20073;-66
2023/01/21 06:42:38;;;;;;;46.42;21.67;;;;;;;-3.27;100.00;102913.41;5029371;28;20064;-66
2023/01/21 06:45:04;;;;;;;50.58;24.42;;;;;;;-3.31;100.00;102912.63;5029287;28;20037;-66
2023/01/21 06:47:29;;;;;;;50.20;21.20;;;;;;;-3.32;100.00;102926.59;5028927;28;20033;-66
2023/01/21 06:49:55;;;;;;;51.65;24.35;;;;;;;-3.30;100.00;102927.41;5033152;28;20033;-66
2023/01/21 06:52:21;;;;;;;46.67;23.33;;;;;;;-3.44;100.00;102912.22;5032966;28;20036;-66
2023/01/21 06:54:47;;;;;;;42.78;21.30;;;;;;;-3.35;100.00;102932.78;5033212;28;20025;-66
2023/01/21 06:57:13;;;;;;;49.40;24.40;;;;;;;-3.35;100.00;102932.78;5033153;28;20061;-66
2023/01/21 06:59:38;;;;;;;44.25;22.27;;;;;;;-3.34;100.00;102939.69;5032740;28;20906;-66
2023/01/21 07:02:04;;;;;;;48.00;23.65;;;;;;;-3.38;100.00;102939.84;5032448;28;20049;-66
2023/01/21 07:04:29;;;;;;;39.80;18.92;;;;;;;-3.32;100.00;102944.88;5032552;28;20025;-66
2023/01/21 07:06:55;;;;;;;46.13;24.90;;;;;;;-3.30;100.00;102953.50;5032443;28;20029;-67
2023/01/21 07:09:20;;;;;;;42.47;21.67;;;;;;;-3.33;100.00;102949.22;5032649;28;20063;-67
2023/01/21 07:11:46;;;;;;;48.28;21.27;;;;;;;-3.31;100.00;102962.22;5032343;28;20043;-67
2023/01/21 07:14:11;;;;;;;47.60;26.52;;;;;;;-3.32;100.00;102958.75;5032494;28;20469;-66
2023/01/21 07:16:36;;;;;;;39.92;19.23;;;;;;;-3.31;100.00;102965.66;5032611;28;20473;-66
2023/01/21 07:19:02;;;;;;;39.53;18.85;;;;;;;-3.34;100.00;102967.53;5032274;28;20124;-66
2023/01/21 07:21:27;;;;;;;46.88;23.33;;;;;;;-3.33;100.00;102969.22;5032276;28;20044;-67
2023/01/21 07:23:54;;;;;;;40.65;20.50;;;;;;;-3.31;100.00;102977.88;5032489;28;20087;-66
2023/01/21 07:26:20;;;;;;;49.42;22.38;;;;;;;-3.29;100.00;102978.66;5032395;28;20053;-67
2023/01/21 07:28:45;;;;;;;39.05;19.90;;;;;;;-3.23;100.00;102982.81;5032726;28;20028;-67
2023/01/21 07:31:10;;;;;;;46.05;23.55;;;;;;;-3.19;100.00;102989.63;5032501;28;20140;-66
2023/01/21 07:33:36;;;;;;;48.38;24.52;;;;;;;-3.14;100.00;102988.56;5032509;28;20033;-66
2023/01/21 07:36:01;;;;;;;51.13;23.55;;;;;;;-3.08;100.00;102992.72;5032403;28;20472;-66
2023/01/21 07:38:26;;;;;;;52.55;23.17;;;;;;;-3.03;100.00;102996.00;5014738;28;20033;-66
2023/01/21 07:40:52;;;;;;;44.33;25.52;;;;;;;-3.03;100.00;102998.63;5032182;28;20038;-66
2023/01/21 07:43:17;;;;;;;39.60;18.42;;;;;;;-2.99;100.00;102988.91;5032322;28;20029;-66
2023/01/21 07:45:43;;;;;;;56.10;27.13;;;;;;;-3.02;100.00;103002.06;5032189;28;20580;-67
2023/01/21 07:48:09;;;;;;;48.80;23.60;;;;;;;-2.96;100.00;103007.06;5032234;28;20552;-67
2023/01/21 07:50:35;;;;;;;47.40;21.75;;;;;;;-2.96;100.00;103014.88;5032137;28;20079;-67
2023/01/21 07:53:00;;;;;;;64.60;29.50;;;;;;;-2.92;100.00;103022.56;5032054;28;20115;-66
2023/01/21 07:55:26;;;;;;;47.72;23.30;;;;;;;-2.95;100.00;103019.22;5031976;28;20036;-67
2023/01/21 07:57:54;;;;;;;48.80;24.88;;;;;;;-2.90;100.00;103017.31;5031892;28;20029;-66
2023/01/21 08:00:20;;;;;;;57.47;26.88;;;;;;;-2.87;100.00;103032.84;5030490;28;20034;-66
2023/01/21 08:02:49;;;;;;;54.35;24.15;;;;;;;-2.83;100.00;103033.59;5031889;28;20480;-69
2023/01/21 08:05:14;;;;;;;51.25;24.88;;;;;;;-2.81;100.00;103042.22;5031443;28;20033;-67
2023/01/21 08:07:40;;;;;;;50.97;23.00;;;;;;;-2.81;100.00;103043.06;5031233;28;20029;-67
2023/01/21 08:10:05;;;;;;;43.38;23.90;;;;;;;-2.78;100.00;103050.78;5031517;28;20567;-68
2023/01/21 08:12:30;;;;;;;57.53;26.73;;;;;;;-2.78;100.00;103053.38;5031267;28;20037;-68
2023/01/21 08:14:56;;;;;;;51.13;22.75;;;;;;;-2.75;100.00;103063.75;5031297;28;20112;-68
2023/01/21 08:17:21;;;;;;;51.65;22.88;;;;;;;-2.72;100.00;103075.84;5030939;28;20057;-67
2023/01/21 08:19:47;;;;;;;44.50;25.42;;;;;;;-2.75;100.00;103073.31;5030960;28;20033;-67
2023/01/21 08:22:12;;;;;;;48.30;24.60;;;;;;;-2.72;100.00;103087.13;5031038;28;20598;-67
2023/01/21 08:24:37;;;;;;;48.72;22.50;;;;;;;-2.70;100.00;103089.69;5031143;28;20522;-68
2023/01/21 08:27:03;;;;;;;50.70;24.73;;;;;;;-2.73;100.00;103087.19;5030892;28;20500;-68
2023/01/21 08:29:28;;;;;;;43.13;23.45;;;;;;;-2.66;100.00;103104.34;5031274;28;20060;-67
2023/01/21 08:31:54;;;;;;;55.45;22.88;;;;;;;-2.65;100.00;103096.47;5031352;28;20033;-68
2023/01/21 08:34:19;;;;;;;58.28;29.33;;;;;;;-2.64;100.00;103107.75;5031339;28;20029;-67
2023/01/21 08:36:45;;;;;;;45.95;21.52;;;;;;;-2.63;100.00;103124.28;5031317;28;20029;-67
2023/01/21 08:39:15;;;;;;;49.83;20.50;;;;;;;-2.65;100.00;103112.13;5031140;28;20029;-67
2023/01/21 08:41:41;;;;;;;53.72;24.23;;;;;;;-2.64;100.00;103118.22;5031399;28;20040;-68
2023/01/21 08:44:06;;;;;;;53.30;28.70;;;;;;;-2.61;100.00;103123.31;5031003;28;20032;-68
2023/01/21 08:46:32;;;;;;;45.90;22.92;;;;;;;-2.63;100.00;103119.91;5031025;28;20034;-67
2023/01/21 08:48:58;;;;;;;43.67;21.45;;;;;;;-2.59;100.00;103120.63;5030988;28;20507;-68
2023/01/21 08:51:24;;;;;;;46.72;22.23;;;;;;;-2.57;100.00;103130.13;5030994;28;20022;-68
2023/01/21 08:53:50;;;;;;;49.80;22.40;;;;;;;-2.58;100.00;103127.59;5030080;28;20736;-67
2023/01/21 08:56:16;;;;;;;51.85;23.20;;;;;;;-2.55;100.00;103130.06;5030858;28;20544;-68
2023/01/21 08:58:41;;;;;;;58.95;23.25;;;;;;;-2.51;100.00;103134.31;5030612;28;20163;-67
2023/01/21 09:01:09;;;;;;;53.15;23.05;;;;;;;-2.48;100.00;103132.41;5030015;28;20056;-67
2023/01/21 09:03:35;;;;;;;51.90;23.35;;;;;;;-2.47;100.00;103139.34;5030132;28;20033;-68
2023/01/21 09:06:05;;;;;;;54.08;23.52;;;;;;;-2.46;100.00;103137.59;5030103;28;20373;-67
2023/01/21 09:08:30;;;;;;;58.45;26.10;;;;;;;-2.42;100.00;103137.41;5030119;28;20091;-69
2023/01/21 09:11:00;;;;;;;57.95;25.63;;;;;;;-2.37;100.00;103136.41;5029529;28;20065;-68
2023/01/21 09:13:26;;;;;;;58.60;28.75;;;;;;;-2.39;100.00;103144.28;5029924;28;20040;-68
2023/01/21 09:15:51;;;;;;;50.00;24.05;;;;;;;-2.35;100.00;103140.66;5030132;28;20038;-68
2023/01/21 09:18:16;;;;;;;53.80;25.48;;;;;;;-2.34;100.00;103142.34;5029744;28;20034;-68
2023/01/21 09:20:42;;;;;;;57.15;23.15;;;;;;;-2.29;100.00;103139.59;5029808;28;20033;-68
2023/01/21 09:23:26;;;;;;;60.63;26.95;;;;;;;-2.30;100.00;103138.75;5030216;28;20400;-68
2023/01/21 09:25:53;;;;;;;56.67;24.85;;;;;;;-2.27;100.00;103138.63;5029553;28;20061;-68
2023/01/21 09:28:20;;;;;;;48.53;23.75;;;;;;;-2.23;100.00;103141.97;5029702;28;20033;-68
2023/01/21 09:30:45;;;;;;;55.95;24.25;;;;;;;-2.19;100.00;103142.72;5030149;28;20102;-67
2023/01/21 09:33:12;;;;;;;50.78;25.33;;;;;;;-2.17;100.00;103140.88;5030208;28;20025;-67
2023/01/21 09:35:38;;;;;;;49.08;21.38;;;;;;;-2.17;100.00;103144.38;5030115;28;20079;-68
2023/01/21 09:38:03;;;;;;;55.08;27.55;;;;;;;-2.10;100.00;103156.28;5029995;28;20041;-67
2023/01/21 09:40:29;;;;;;;63.35;23.67;;;;;;;-2.07;100.00;103157.94;5030098;28;20156;-67
2023/01/21 09:42:54;;;;;;;47.05;23.25;;;;;;;-2.00;100.00;103162.88;5030365;28;20037;-67
2023/01/21 09:45:20;;;;;;;55.28;23.20;;;;;;;-2.04;100.00;103171.75;5012307;28;20028;-67
2023/01/21 09:47:49;;;;;;;54.00;25.10;;;;;;;-2.08;100.00;103170.16;5029948;28;20031;-67
2023/01/21 09:50:20;;;;;;;55.10;23.90;;;;;;;-2.02;100.00;103176.91;5029894;28;20021;-67
2023/01/21 09:52:50;;;;;;;57.85;28.65;;;;;;;-1.98;100.00;103186.34;5026270;28;20029;-67
2023/01/21 09:55:40;;;;;;;66.50;28.02;;;;;;;-1.96;100.00;103195.00;5023327;28;20025;-68
2023/01/21 09:58:30;;;;;;;56.85;25.92;;;;;;;-1.90;100.00;103194.75;5024019;28;20560;-68
2023/01/21 10:01:20;;;;;;;51.47;21.02;;;;;;;-1.93;100.00;103191.44;5024182;28;20079;-68
2023/01/21 10:04:00;;;;;;;64.63;28.60;;;;;;;-1.80;100.00;103201.34;5022896;28;20040;-69
2023/01/21 10:06:34;;;;;;;51.33;23.92;;;;;;;-1.77;100.00;103205.63;5023494;28;20025;-68
2023/01/21 10:09:12;;;;;;;54.97;27.10;;;;;;;-1.71;100.00;103208.00;5024048;28;20026;-70
2023/01/21 10:11:47;;;;;;;55.17;26.75;;;;;;;-1.60;100.00;103208.47;5023824;28;20424;-68
2023/01/21 10:14:47;;;;;;;47.80;23.27;;;;;;;-1.50;100.00;103208.94;5023742;28;20533;-67
2023/01/21 10:17:50;;;;;;;51.67;22.00;;;;;;;-1.42;100.00;103206.00;5024081;28;20060;-67
2023/01/21 10:20:33;;;;;;;52.47;27.88;;;;;;;-1.33;100.00;103200.44;5023604;28;20074;-67
2023/01/21 10:23:10;;;;;;;58.45;23.23;;;;;;;-1.27;100.00;103205.41;5022938;28;20167;-67
2023/01/21 10:25:36;;;;;;;50.20;23.75;;;;;;;-1.20;100.00;103192.94;5023974;28;20606;-67
2023/01/21 10:28:24;;;;;;;59.85;26.58;;;;;;;-1.25;100.00;103181.81;5023887;28;20059;-68
2023/01/21 10:30:55;;;;;;;62.22;28.58;;;;;;;-1.09;100.00;103198.59;5023555;28;20083;-68
2023/01/21 10:33:24;;;;;;;56.45;27.23;;;;;;;-1.08;100.00;103184.56;5023455;28;20029;-68
2023/01/21 10:35:49;;;;;;;49.70;25.23;;;;;;;-0.96;100.00;103189.31;5023593;28;20025;-67
2023/01/21 10:38:23;;;;;;;53.58;26.52;;;;;;;-0.91;100.00;103186.50;5023814;28;20492;-67
2023/01/21 10:41:02;;;;;;;73.68;25.33;;;;;;;-0.84;100.00;103189.69;5023669;28;20075;-67
2023/01/21 10:43:54;;;;;;;56.88;26.17;;;;;;;-0.80;100.00;103181.66;5023113;28;20124;-67
2023/01/21 10:46:33;;;;;;;53.92;25.90;;;;;;;-0.76;100.00;103185.00;5023745;28;20100;-69
2023/01/21 10:49:44;;;;;;;48.45;24.40;;;;;;;-0.65;100.00;103185.41;5028550;28;20040;-68
2023/01/21 10:52:33;;;;;;;51.13;26.60;;;;;;;-0.61;100.00;103188.72;5029313;28;20026;-68
2023/01/21 10:55:23;;;;;;;44.22;18.88;;;;;;;-0.44;100.00;103183.63;5011927;28;20048;-68
2023/01/21 10:57:48;;;;;;;47.30;22.85;;;;;;;-0.35;100.00;103177.09;5029083;28;20049;-68
2023/01/21 11:00:28;;;;;;;47.58;22.48;;;;;;;-0.30;100.00;103183.84;5028976;28;20068;-68
2023/01/21 11:03:01;;;;;;;47.22;21.45;;;;;;;-0.30;100.00;103180.38;5028259;28;20047;-68
2023/01/21 11:05:27;;;;;;;53.83;24.48;;;;;;;-0.27;100.00;103177.63;5028669;28;20040;-69
2023/01/21 11:07:55;;;;;;;45.50;22.67;;;;;;;-0.26;100.00;103176.72;5010541;28;20045;-68
2023/01/21 11:10:25;;;;;;;48.40;22.52;;;;;;;-0.26;100.00;103174.09;5028235;28;20030;-68
2023/01/21 11:12:53;;;;;;;54.55;22.10;;;;;;;-0.24;100.00;103173.09;5028084;28;20038;-67
2023/01/21 11:15:20;;;;;;;58.90;24.08;;;;;;;-0.23;100.00;103176.56;5028159;28;20061;-66